Mankato, MN (56001)

7:43 PM CDT on March 25, 2017 (GMT -0500)
Physics & Astronomy | | Change Station

Elev 1010 ft 44.15 °N, 94.00 °W | Updated 14 seconds ago

Fog
Fog
38.4 °F
Feels Like 38 °F
N
0.0
Wind Variable Wind from NE
Gusts 0.0 mph

Today
High -- | Low -- °F
--% Chance of Precip.
Yesterday
High -- | Low -- °F
Precip. -- in
Pressure 30.08 in
Visibility 4.0 miles
Clouds Overcast 700 ft
Windchill 38 °F
Dew Point 36 °F
Humidity 90%
Rainfall 0.00 in
Snow Depth Not available.
7:09 AM 7:34 PM
Waning Crescent, 6% visible
METAR KMKT 252356Z AUTO 05009KT 4SM -RA BR OVC007 03/03 A3004 RMK AO2 CIG 005V009 SLP184 P0000 60000 T00330028 10044 20033 55001
Pressure 30.08 in
Visibility 4.0 miles
Clouds Overcast 700 ft
Windchill 38 °F
Dew Point 36 °F
Humidity 90%
Rainfall 0.00 in
Snow Depth Not available.
7:09 AM 7:34 PM
Waning Crescent, 6% visible
METAR KMKT 252356Z AUTO 05009KT 4SM -RA BR OVC007 03/03 A3004 RMK AO2 CIG 005V009 SLP184 P0000 60000 T00330028 10044 20033 55001

Get Severe Weather Alerts

Thanks for signing up!

Be on the lookout for a verification email in your inbox.

You'll start receiving the daily forecast at 8 AM.

×

10-Day Weather Forecast

Almanac

Astronomy

Mar. 25, 2017 Rise Set
Actual Time
Civil Twilight
Nautical Twilight
Astronomical Twilight
Moon
Length of Visible Light
Length of Day
Tomorrow will be .
, % of the Moon is Illuminated

Today's Extremes

State Highs State Lows

Community

WunderPhotos

Upload Photos

1,962,540 photos uploaded!

WunderBlog® & News

Nearby

Air Quality

  Air Quality AQ Index Pollutant
Not available.

Snow Depth

Station Depth Elevation

Earthquake Activity

City Distance Mag. Time & Date
Minimum magnitude displayed is 2.5.

Earthquake Activity

City Distance Mag. Time & Date
Minimum magnitude displayed is 2.5.

Coastal Water Temperatures

Place Temperature

Stations

Nearby Weather Stations

Station Location Temp. Windchill Dew Point Humidity Wind Precip. Elev Updated Type
                   

Watches & Warnings

There are currently no watches in effect.